Terminal Aerodrome Forecast
Issued by NWS

Home | Current Version | Previous Version | Text Only | Print | Product List | Glossary On
Versions: 1 2 3 4 5 6 7 8 9 10 11 12 13 14 15 16 17 18 19 20 21 22 23 24 25 26 27 28 29
000
FTUS46 KLOX 232333
TAFPMD
TAF
KPMD 232333Z 2400/2424 28015KT P6SM VCSH BKN040
     FM241000 25010KT P6SM BKN050
     FM241600 VRB03KT P6SM SCT050
     FM242200 26010KT P6SM SCT050=

USA.gov is the U.S. government's official web portal to all federal, state and local government web resources and services.